Time;durP1;ratioP1;P1;durP2;ratioP2;P2;SDS_P1;SDS_P2;PMS_P1;PMS_P2;Temp;Humidity;BMP_temperature;BMP_pressure;BME280_temperature;BME280_humidity;BME280_pressure;Samples;Min_cycle;Max_cycle;Signal;HPM_P1;HPM_P2
2022/02/25 00:02:02;;;;;;;12.00;1.70;;;;;;;7.33;55.11;101652.25;4750170;29;20122;-54
2022/02/25 00:04:28;;;;;;;7.95;1.58;;;;;;;7.33;55.18;101652.25;4749633;29;20051;-52
2022/02/25 00:06:53;;;;;;;8.82;1.40;;;;;;;7.33;55.61;101647.06;4747055;29;20052;-51
2022/02/25 00:09:24;;;;;;;13.85;1.63;;;;;;;7.33;55.70;101652.25;4748863;29;20055;-51
2022/02/25 00:11:49;;;;;;;9.48;1.40;;;;;;;7.27;55.87;101658.09;4744476;29;20074;-53
2022/02/25 00:14:15;;;;;;;14.48;1.50;;;;;;;7.23;56.19;101664.00;4761445;29;20055;-52
2022/02/25 00:16:40;;;;;;;12.73;1.70;;;;;;;7.22;56.10;101661.34;4753315;29;20595;-55
2022/02/25 00:19:06;;;;;;;9.63;1.50;;;;;;;7.25;56.39;101649.38;4743656;29;20399;-54
2022/02/25 00:21:31;;;;;;;9.70;1.45;;;;;;;7.37;56.11;101650.69;4746649;29;20047;-54
2022/02/25 00:23:57;;;;;;;12.32;2.13;;;;;;;7.32;56.44;101659.16;4749786;29;20876;-54
2022/02/25 00:26:22;;;;;;;8.45;1.70;;;;;;;7.39;56.29;101669.75;4753193;29;20052;-54
2022/02/25 00:28:48;;;;;;;9.02;1.70;;;;;;;7.37;56.53;101672.31;4746751;29;20512;-55
2022/02/25 00:31:13;;;;;;;13.63;2.03;;;;;;;7.31;56.74;101662.59;4743423;29;20579;-53
2022/02/25 00:33:38;;;;;;;13.80;2.00;;;;;;;7.31;56.62;101672.09;4757279;29;20180;-55
2022/02/25 00:36:06;;;;;;;12.38;2.00;;;;;;;7.22;56.82;101667.41;4753815;29;20047;-54
2022/02/25 00:38:32;;;;;;;7.85;1.75;;;;;;;7.20;56.85;101662.97;4749758;29;20055;-52
2022/02/25 00:40:57;;;;;;;16.83;2.30;;;;;;;7.21;56.71;101668.22;4748942;29;20526;-54
2022/02/25 00:43:22;;;;;;;11.27;1.60;;;;;;;7.23;56.67;101668.28;4752679;29;20051;-55
2022/02/25 00:45:48;;;;;;;15.98;2.22;;;;;;;7.23;56.78;101670.88;4743534;29;20132;-53
2022/02/25 00:48:14;;;;;;;10.52;1.90;;;;;;;7.21;57.14;101672.53;4755422;29;20063;-51
2022/02/25 00:50:39;;;;;;;16.55;2.30;;;;;;;7.26;56.53;101674.47;4758342;29;20951;-56
2022/02/25 00:53:04;;;;;;;14.43;2.08;;;;;;;7.22;56.80;101670.00;4751412;29;20197;-53
2022/02/25 00:55:30;;;;;;;13.90;1.83;;;;;;;7.15;57.11;101672.28;4752259;29;20132;-52
2022/02/25 00:57:58;;;;;;;10.98;1.70;;;;;;;7.22;56.70;101674.31;4744061;29;20465;-50
2022/02/25 01:00:25;;;;;;;10.18;1.60;;;;;;;7.17;56.81;101675.84;4767255;29;20077;-51
2022/02/25 01:02:52;;;;;;;12.43;1.85;;;;;;;7.19;56.99;101677.69;4755704;29;20120;-53
2022/02/25 01:05:18;;;;;;;13.07;1.65;;;;;;;7.29;56.48;101673.72;4751479;29;20099;-53
2022/02/25 01:07:44;;;;;;;15.93;1.88;;;;;;;7.25;56.66;101667.53;4754824;29;20051;-55
2022/02/25 01:10:12;;;;;;;11.15;1.83;;;;;;;7.27;56.79;101673.66;4757030;29;20059;-53
2022/02/25 01:12:38;;;;;;;14.20;1.75;;;;;;;7.27;56.58;101678.84;4749066;29;20075;-53
2022/02/25 01:15:05;;;;;;;14.07;1.70;;;;;;;7.25;57.41;101675.31;4749973;29;20178;-54
2022/02/25 01:17:31;;;;;;;11.25;1.60;;;;;;;7.32;56.88;101676.41;4754021;29;20039;-54
2022/02/25 01:19:57;;;;;;;15.65;2.35;;;;;;;7.26;56.68;101678.78;4751693;29;20162;-51
2022/02/25 01:22:24;;;;;;;15.13;2.10;;;;;;;7.26;56.72;101673.59;4760089;29;20575;-54
2022/02/25 01:24:50;;;;;;;11.63;1.70;;;;;;;7.25;56.62;101666.66;4750115;29;20545;-54
2022/02/25 01:27:15;;;;;;;8.70;1.60;;;;;;;7.28;56.14;101671.94;4736453;29;20069;-50
2022/02/25 01:29:41;;;;;;;12.30;2.67;;;;;;;7.39;55.89;101674.94;4757870;29;20344;-52
2022/02/25 01:32:07;;;;;;;12.48;1.67;;;;;;;7.36;56.12;101677.44;4755026;29;20082;-52
2022/02/25 01:34:32;;;;;;;13.90;1.88;;;;;;;7.27;56.17;101670.16;4758349;29;20540;-50
2022/02/25 01:36:58;;;;;;;8.43;1.50;;;;;;;7.35;55.94;101681.75;4745184;29;20058;-55
2022/02/25 01:39:23;;;;;;;14.00;2.10;;;;;;;7.36;56.10;101677.44;4754879;29;20054;-54
2022/02/25 01:41:49;;;;;;;13.35;1.95;;;;;;;7.34;56.53;101685.16;4756202;29;20135;-54
2022/02/25 01:44:23;;;;;;;9.07;1.60;;;;;;;7.42;56.40;101678.56;4755183;29;20058;-54
2022/02/25 01:46:50;;;;;;;11.88;1.90;;;;;;;7.41;56.34;101684.56;4750672;29;20545;-52
2022/02/25 01:49:16;;;;;;;15.15;1.75;;;;;;;7.45;56.28;101685.56;4749586;29;20134;-54
2022/02/25 01:51:42;;;;;;;11.63;2.47;;;;;;;7.46;55.68;101688.22;4751934;29;20060;-51
2022/02/25 01:54:08;;;;;;;15.73;1.90;;;;;;;7.44;55.66;101684.69;4751797;29;20062;-51
2022/02/25 01:56:37;;;;;;;12.50;1.80;;;;;;;7.46;55.04;101680.44;4751999;29;20167;-53
2022/02/25 01:59:03;;;;;;;14.55;1.85;;;;;;;7.43;55.50;101682.94;4746829;29;20058;-53
2022/02/25 02:01:28;;;;;;;8.60;1.63;;;;;;;7.45;55.38;101685.56;4756074;29;20056;-52
2022/02/25 02:03:55;;;;;;;8.48;1.73;;;;;;;7.39;55.48;101681.03;4752497;29;20074;-51
2022/02/25 02:06:21;;;;;;;9.02;1.48;;;;;;;7.37;56.08;101687.00;4754353;29;20043;-53
2022/02/25 02:08:47;;;;;;;9.73;1.77;;;;;;;7.29;56.47;101677.19;4755755;29;20046;-54
2022/02/25 02:11:26;;;;;;;16.20;1.95;;;;;;;7.25;56.85;101685.69;4739587;29;20055;-51
2022/02/25 02:13:51;;;;;;;13.82;1.90;;;;;;;7.37;56.62;101680.09;4758112;29;20098;-52
2022/02/25 02:16:17;;;;;;;14.60;2.10;;;;;;;7.42;56.32;101673.38;4755928;29;20126;-52
2022/02/25 02:18:42;;;;;;;14.48;2.00;;;;;;;7.37;56.68;101681.81;4747113;29;20075;-50
2022/02/25 02:21:07;;;;;;;15.35;2.03;;;;;;;7.43;56.59;101672.56;4748818;29;20083;-52
2022/02/25 02:23:32;;;;;;;19.58;2.17;;;;;;;7.46;56.51;101680.44;4750466;29;20043;-53
2022/02/25 02:25:58;;;;;;;17.40;2.10;;;;;;;7.42;56.91;101680.28;4751995;29;20055;-52
2022/02/25 02:28:27;;;;;;;16.23;2.30;;;;;;;7.37;57.17;101682.69;4751859;29;20066;-54
2022/02/25 02:30:53;;;;;;;12.48;1.85;;;;;;;7.37;57.06;101680.09;4746260;29;20227;-54
2022/02/25 02:33:18;;;;;;;14.50;2.42;;;;;;;7.39;56.82;101673.25;4748590;29;20668;-51
2022/02/25 02:35:44;;;;;;;19.60;2.72;;;;;;;7.33;57.38;101678.19;4756448;29;20048;-54
2022/02/25 02:38:11;;;;;;;19.00;2.30;;;;;;;7.27;57.71;101672.75;4748571;29;20058;-52
2022/02/25 02:40:36;;;;;;;14.23;2.10;;;;;;;7.35;57.39;101655.81;4753000;29;20305;-54
2022/02/25 02:43:02;;;;;;;11.30;1.90;;;;;;;7.31;57.76;101666.91;4749416;29;20066;-54
2022/02/25 02:45:28;;;;;;;11.50;2.08;;;;;;;7.37;57.28;101668.84;4746345;29;20517;-55
2022/02/25 02:47:53;;;;;;;13.82;2.25;;;;;;;7.40;57.37;101656.84;4757898;29;20609;-53
2022/02/25 02:50:18;;;;;;;15.57;2.53;;;;;;;7.40;57.30;101655.97;4771993;29;20051;-54
2022/02/25 02:52:44;;;;;;;18.83;1.83;;;;;;;7.39;57.52;101652.50;4751193;29;20087;-52
2022/02/25 02:55:09;;;;;;;19.33;2.42;;;;;;;7.43;57.32;101653.50;4744764;29;20502;-50
2022/02/25 02:57:35;;;;;;;14.13;2.42;;;;;;;7.40;57.17;101649.06;4754616;29;20055;-55
2022/02/25 03:00:00;;;;;;;12.60;1.92;;;;;;;7.36;57.56;101644.59;4748439;29;20080;-52
2022/02/25 03:02:25;;;;;;;14.52;2.38;;;;;;;7.50;57.20;101652.94;4757798;29;20319;-54
2022/02/25 03:04:52;;;;;;;17.65;2.92;;;;;;;7.43;57.19;101649.22;4751802;29;20054;-54
2022/02/25 03:07:17;;;;;;;12.20;2.30;;;;;;;7.46;57.14;101644.13;4746776;29;20983;-54
2022/02/25 03:09:43;;;;;;;11.57;2.30;;;;;;;7.47;57.11;101638.13;4749384;29;20404;-53
2022/02/25 03:12:08;;;;;;;18.05;2.42;;;;;;;7.53;56.93;101647.84;4753887;29;20494;-54
2022/02/25 03:14:36;;;;;;;13.32;2.22;;;;;;;7.46;57.10;101651.03;4755074;29;20500;-53
2022/02/25 03:17:01;;;;;;;13.02;2.00;;;;;;;7.33;56.85;101650.53;4745850;29;20062;-52
2022/02/25 03:19:27;;;;;;;20.73;2.50;;;;;;;7.39;57.15;101643.81;4753293;29;20376;-55
2022/02/25 03:21:52;;;;;;;13.63;2.22;;;;;;;7.38;57.58;101649.88;4753138;29;20043;-52
2022/02/25 03:24:17;;;;;;;16.60;2.33;;;;;;;7.35;57.92;101658.41;4750545;29;20043;-53
2022/02/25 03:26:43;;;;;;;21.25;2.72;;;;;;;7.33;57.93;101654.84;4747773;29;20086;-54
2022/02/25 03:29:08;;;;;;;16.38;2.40;;;;;;;7.36;58.08;101656.69;4748059;29;20101;-51
2022/02/25 03:31:34;;;;;;;17.67;2.65;;;;;;;7.34;57.96;101660.09;4759458;29;20047;-54
2022/02/25 03:33:59;;;;;;;16.05;2.42;;;;;;;7.36;57.70;101667.94;4751833;29;20771;-51
2022/02/25 03:36:24;;;;;;;12.50;2.10;;;;;;;7.44;57.64;101665.66;4753216;29;20397;-52
2022/02/25 03:38:50;;;;;;;17.08;2.45;;;;;;;7.56;57.59;101659.19;4748613;29;20051;-54
2022/02/25 03:41:15;;;;;;;20.77;2.10;;;;;;;7.67;57.17;101657.94;4747232;29;23662;-51
2022/02/25 03:43:40;;;;;;;13.45;1.98;;;;;;;7.76;57.21;101649.56;4752732;29;20059;-54
2022/02/25 03:46:06;;;;;;;13.52;2.10;;;;;;;7.89;57.07;101664.78;4742968;29;20050;-55
2022/02/25 03:48:31;;;;;;;21.75;2.83;;;;;;;7.93;57.35;101658.84;4749154;29;20072;-55
2022/02/25 03:50:56;;;;;;;17.85;2.60;;;;;;;7.97;57.29;101659.88;4752518;29;20398;-52
2022/02/25 03:53:22;;;;;;;20.05;2.30;;;;;;;8.01;57.88;101652.25;4746273;29;20426;-52
2022/02/25 03:55:47;;;;;;;19.60;2.65;;;;;;;8.08;57.68;101645.56;4749132;29;20525;-52
2022/02/25 03:58:12;;;;;;;18.50;2.30;;;;;;;8.14;57.46;101646.66;4750282;29;20156;-54
2022/02/25 04:00:38;;;;;;;21.15;2.50;;;;;;;8.21;57.64;101654.66;4757822;29;20160;-55
2022/02/25 04:03:04;;;;;;;16.30;2.58;;;;;;;8.21;57.43;101665.94;4746051;29;20055;-52
2022/02/25 04:05:30;;;;;;;21.38;2.30;;;;;;;8.39;57.12;101655.34;4751365;29;20125;-51
2022/02/25 04:07:56;;;;;;;12.32;2.58;;;;;;;8.41;56.91;101661.50;4754602;29;20478;-50
2022/02/25 04:10:21;;;;;;;17.48;2.67;;;;;;;8.33;57.17;101658.63;4757012;29;20055;-54
2022/02/25 04:12:47;;;;;;;15.90;2.25;;;;;;;8.46;57.26;101641.72;4752674;29;20055;-54
2022/02/25 04:15:12;;;;;;;19.58;2.70;;;;;;;8.45;56.78;101658.16;4752473;29;20043;-54
2022/02/25 04:17:38;;;;;;;11.73;2.22;;;;;;;8.52;56.46;101666.22;4755782;29;20134;-53
2022/02/25 04:20:04;;;;;;;15.43;2.17;;;;;;;8.57;56.11;101655.09;4752669;29;20047;-54
2022/02/25 04:22:30;;;;;;;17.88;2.47;;;;;;;8.43;57.02;101654.59;4759240;29;20669;-52
2022/02/25 04:24:55;;;;;;;19.35;2.60;;;;;;;8.47;56.70;101662.59;4758535;29;20150;-59
2022/02/25 04:27:21;;;;;;;20.67;2.40;;;;;;;8.51;56.71;101648.84;4752870;29;20043;-52
2022/02/25 04:29:47;;;;;;;16.73;2.70;;;;;;;8.48;56.75;101658.25;4753078;29;20629;-51
2022/02/25 04:32:12;;;;;;;11.80;2.50;;;;;;;8.62;56.40;101651.81;4755414;29;20277;-55
2022/02/25 04:34:39;;;;;;;17.13;2.45;;;;;;;8.53;56.73;101659.31;4755301;29;20047;-54
2022/02/25 04:37:05;;;;;;;20.95;3.08;;;;;;;8.54;57.01;101648.94;4751097;29;20082;-54
2022/02/25 04:39:30;;;;;;;15.02;2.97;;;;;;;8.56;57.22;101643.81;4758645;29;20124;-54
2022/02/25 04:41:55;;;;;;;15.75;2.25;;;;;;;8.66;56.93;101643.25;4750414;29;20055;-54
2022/02/25 04:44:22;;;;;;;19.38;2.42;;;;;;;8.67;57.62;101637.25;4740634;29;20081;-50
2022/02/25 04:46:48;;;;;;;13.98;2.50;;;;;;;8.66;57.99;101643.25;4750832;29;20082;-54
2022/02/25 04:49:15;;;;;;;15.38;2.53;;;;;;;8.51;59.69;101642.78;4750611;29;20094;-53
2022/02/25 04:51:41;;;;;;;17.27;2.90;;;;;;;8.34;60.85;101643.91;4757603;29;20431;-53
2022/02/25 04:54:06;;;;;;;23.00;2.88;;;;;;;8.43;60.78;101652.00;4754398;29;20144;-52
2022/02/25 04:56:31;;;;;;;15.75;2.58;;;;;;;8.31;62.14;101664.56;4756099;29;20043;-52
2022/02/25 04:58:57;;;;;;;22.98;3.38;;;;;;;8.19;62.83;101659.81;4743359;29;20574;-57
2022/02/25 05:01:22;;;;;;;22.58;3.10;;;;;;;8.17;63.08;101668.38;4745047;29;20120;-53
2022/02/25 05:03:48;;;;;;;19.58;2.83;;;;;;;8.08;63.08;101664.63;4755159;29;20143;-54
2022/02/25 05:06:13;;;;;;;17.27;2.75;;;;;;;8.10;63.49;101665.56;4753973;29;20058;-50
2022/02/25 05:08:38;;;;;;;17.27;2.50;;;;;;;7.97;63.84;101663.34;4753057;29;20043;-54
2022/02/25 05:11:04;;;;;;;13.57;2.50;;;;;;;8.06;63.41;101681.84;4752616;29;20092;-52
2022/02/25 05:13:30;;;;;;;13.25;2.20;;;;;;;7.97;63.13;101665.06;4755882;29;20583;-55
2022/02/25 05:21:24;;;;;;;17.73;3.10;;;;;;;8.06;61.89;101679.25;4756355;29;20070;-50
2022/02/25 05:23:50;;;;;;;20.73;2.88;;;;;;;8.20;61.43;101684.06;4754380;29;20039;-52
2022/02/25 05:26:15;;;;;;;17.77;2.40;;;;;;;8.20;61.42;101681.47;4755840;29;20466;-53
2022/02/25 05:28:40;;;;;;;16.90;2.40;;;;;;;8.23;60.65;101679.88;4758229;29;20062;-55
2022/02/25 05:31:06;;;;;;;16.13;2.40;;;;;;;8.12;61.34;101701.97;4751388;29;20059;-55
2022/02/25 05:33:32;;;;;;;14.77;2.13;;;;;;;8.30;60.90;101700.06;4754235;29;20043;-52
2022/02/25 05:35:58;;;;;;;12.73;2.30;;;;;;;8.27;61.59;101696.44;4753893;29;20063;-52
2022/02/25 05:38:23;;;;;;;14.40;2.75;;;;;;;8.08;61.51;101703.56;4755359;29;20078;-54
2022/02/25 05:40:49;;;;;;;17.30;2.55;;;;;;;8.18;61.19;101698.69;4744153;29;20390;-52
2022/02/25 05:43:14;;;;;;;14.95;2.30;;;;;;;8.17;60.82;101704.75;4748428;29;20443;-53
2022/02/25 05:45:39;;;;;;;18.27;2.22;;;;;;;8.18;59.89;101715.16;4755529;29;20477;-55
2022/02/25 05:48:05;;;;;;;22.58;2.80;;;;;;;8.34;60.11;101704.56;4758989;29;20083;-54
2022/02/25 05:50:30;;;;;;;16.50;2.10;;;;;;;8.37;59.45;101706.34;4759742;29;20055;-54
2022/02/25 05:52:56;;;;;;;16.08;2.50;;;;;;;8.30;59.77;101714.72;4748364;29;20127;-51
2022/02/25 05:55:22;;;;;;;10.98;2.40;;;;;;;8.29;58.88;101720.78;4746866;29;20051;-55
2022/02/25 05:57:54;;;;;;;15.38;2.20;;;;;;;8.31;59.66;101719.13;4752855;29;20441;-54
2022/02/25 06:00:20;;;;;;;15.40;2.40;;;;;;;8.36;59.06;101736.66;4752539;29;20065;-55
2022/02/25 06:02:47;;;;;;;13.73;2.30;;;;;;;8.42;58.64;101742.06;4750214;29;20048;-51
2022/02/25 06:05:13;;;;;;;25.55;2.72;;;;;;;8.39;58.24;101747.16;4748722;29;20233;-53
2022/02/25 06:07:38;;;;;;;16.85;2.10;;;;;;;8.49;58.70;101757.06;4752573;29;20044;-50
2022/02/25 06:10:05;;;;;;;17.63;2.50;;;;;;;8.39;58.89;101765.34;4755987;29;20488;-54
2022/02/25 06:12:30;;;;;;;15.38;2.40;;;;;;;8.50;58.49;101770.94;4753073;29;20351;-53
2022/02/25 06:14:55;;;;;;;15.30;2.25;;;;;;;8.55;59.09;101779.78;4744551;29;20054;-55
2022/02/25 06:17:22;;;;;;;10.13;2.08;;;;;;;8.46;59.40;101793.34;4747638;29;20086;-55
2022/02/25 06:19:48;;;;;;;13.13;2.20;;;;;;;8.56;58.83;101786.75;4755585;29;20047;-55
2022/02/25 06:22:13;;;;;;;16.65;2.15;;;;;;;8.55;58.72;101796.25;4752902;29;20428;-53
2022/02/25 06:24:39;;;;;;;14.50;2.25;;;;;;;8.61;58.74;101803.38;4766455;29;20522;-51
2022/02/25 06:27:04;;;;;;;17.10;2.40;;;;;;;8.52;58.81;101806.56;4738801;29;20039;-52
2022/02/25 06:29:30;;;;;;;13.07;2.53;;;;;;;8.54;58.29;101811.78;4758729;29;20043;-49
2022/02/25 06:31:55;;;;;;;16.05;2.40;;;;;;;8.65;58.45;101815.69;4754529;29;20061;-53
2022/02/25 06:34:21;;;;;;;13.15;2.45;;;;;;;8.63;58.21;101813.84;4755817;29;20511;-53
2022/02/25 06:36:46;;;;;;;14.13;2.33;;;;;;;8.54;58.52;101814.38;4751186;29;20595;-53
2022/02/25 06:39:19;;;;;;;18.20;2.72;;;;;;;8.64;58.42;101826.91;4742302;29;20365;-53
2022/02/25 06:41:44;;;;;;;14.55;2.42;;;;;;;8.67;58.53;101819.19;4757136;29;20142;-54
2022/02/25 06:44:09;;;;;;;18.30;2.70;;;;;;;8.70;58.24;101834.94;4756577;29;20047;-54
2022/02/25 06:46:35;;;;;;;12.15;2.50;;;;;;;8.68;58.44;101839.19;4755113;29;20051;-53
2022/02/25 06:49:01;;;;;;;14.73;2.38;;;;;;;8.74;58.97;101842.00;4758731;29;20051;-53
2022/02/25 06:51:27;;;;;;;15.45;3.08;;;;;;;8.60;59.13;101851.00;4755335;29;20054;-54
2022/02/25 06:53:53;;;;;;;11.82;2.47;;;;;;;8.67;59.12;101847.78;4751390;29;20134;-51
2022/02/25 06:56:20;;;;;;;14.95;2.55;;;;;;;8.78;59.31;101853.41;4754183;29;20039;-54
2022/02/25 06:58:45;;;;;;;15.65;2.42;;;;;;;8.77;59.25;101851.63;4751249;29;20056;-54
2022/02/25 07:01:10;;;;;;;14.25;2.40;;;;;;;8.68;58.89;101859.97;4747050;29;20562;-55
2022/02/25 07:03:36;;;;;;;13.43;2.85;;;;;;;8.82;58.98;101858.78;4755990;29;20134;-53
2022/02/25 07:06:03;;;;;;;14.45;2.65;;;;;;;8.96;58.65;101873.13;4746645;29;20547;-53
2022/02/25 07:08:28;;;;;;;16.80;3.88;;;;;;;8.90;59.24;101874.66;4756754;29;20043;-53
2022/02/25 07:10:54;;;;;;;22.70;2.72;;;;;;;8.92;59.15;101875.56;4753136;29;20172;-51
2022/02/25 07:13:19;;;;;;;16.90;2.90;;;;;;;9.04;58.38;101870.81;4742161;29;20138;-50
2022/02/25 07:15:45;;;;;;;19.80;3.05;;;;;;;8.99;58.81;101882.78;4751503;29;20116;-54
2022/02/25 07:18:11;;;;;;;18.20;2.65;;;;;;;8.95;59.16;101883.50;4744437;29;20043;-54
2022/02/25 07:20:36;;;;;;;20.60;2.85;;;;;;;8.93;59.23;101892.94;4751425;29;20539;-54
2022/02/25 07:23:03;;;;;;;14.45;3.03;;;;;;;8.97;58.82;101897.41;4744550;29;20472;-52
2022/02/25 07:25:29;;;;;;;20.85;2.80;;;;;;;9.03;58.75;101909.75;4750813;29;20226;-54
2022/02/25 07:27:55;;;;;;;13.05;2.50;;;;;;;9.18;57.93;101910.31;4754154;29;20051;-52
2022/02/25 07:30:26;;;;;;;17.55;2.88;;;;;;;9.24;58.10;101914.03;4754985;29;20085;-53
2022/02/25 07:32:52;;;;;;;16.55;2.53;;;;;;;9.32;58.13;101909.09;4756293;29;20058;-53
2022/02/25 07:35:18;;;;;;;12.75;2.65;;;;;;;9.48;56.99;101906.19;4745137;29;20075;-49
2022/02/25 07:37:43;;;;;;;17.05;3.00;;;;;;;9.48;57.43;101918.31;4744894;29;20079;-53
2022/02/25 07:40:12;;;;;;;17.88;3.05;;;;;;;9.52;57.21;101918.47;4750657;29;20062;-52
2022/02/25 07:42:38;;;;;;;13.07;2.58;;;;;;;9.59;57.18;101919.56;4741983;29;20058;-55
2022/02/25 07:45:04;;;;;;;17.33;2.85;;;;;;;9.62;57.63;101928.38;4749303;29;20059;-51
2022/02/25 07:47:29;;;;;;;15.38;3.22;;;;;;;9.62;56.74;101927.50;4748627;29;20070;-51
2022/02/25 07:49:56;;;;;;;17.42;2.70;;;;;;;9.49;56.66;101935.69;4753788;29;20059;-54
2022/02/25 07:52:22;;;;;;;21.88;2.83;;;;;;;9.60;57.03;101939.56;4742194;29;20058;-54
2022/02/25 07:54:47;;;;;;;22.10;3.40;;;;;;;9.75;56.46;101937.50;4753875;29;20543;-51
2022/02/25 07:57:14;;;;;;;14.07;2.70;;;;;;;9.68;56.49;101938.09;4746689;29;20601;-50
2022/02/25 07:59:40;;;;;;;16.52;2.70;;;;;;;9.88;55.92;101946.59;4753223;29;20068;-54
2022/02/25 08:02:05;;;;;;;17.17;3.17;;;;;;;10.00;55.61;101960.03;4750350;29;20047;-52
2022/02/25 08:04:30;;;;;;;12.82;2.50;;;;;;;9.95;55.53;101964.16;4751310;29;20066;-52
2022/02/25 08:06:56;;;;;;;23.42;2.70;;;;;;;9.80;55.10;101972.38;4749097;29;20314;-52
2022/02/25 08:09:22;;;;;;;21.83;2.75;;;;;;;9.75;55.60;101967.03;4740596;29;20071;-55
2022/02/25 08:11:48;;;;;;;20.42;3.28;;;;;;;9.66;56.01;101973.59;4751330;29;21204;-54
2022/02/25 08:14:14;;;;;;;18.00;2.38;;;;;;;9.71;56.78;101972.94;4750320;29;20748;-55
2022/02/25 08:16:39;;;;;;;18.55;2.67;;;;;;;9.68;56.32;101983.25;4748742;29;20047;-54
2022/02/25 08:19:06;;;;;;;14.25;2.40;;;;;;;9.78;56.17;101993.16;4739532;29;20626;-56
2022/02/25 08:21:32;;;;;;;17.73;2.85;;;;;;;9.87;56.17;101994.31;4753645;29;20051;-54
2022/02/25 08:23:57;;;;;;;17.88;2.60;;;;;;;9.70;56.63;102007.63;4755259;29;20082;-53
2022/02/25 08:26:23;;;;;;;23.02;3.20;;;;;;;9.56;56.71;102007.97;4742934;29;20042;-54
2022/02/25 08:28:48;;;;;;;16.63;2.45;;;;;;;9.67;56.54;102011.84;4765977;29;20220;-50
2022/02/25 08:31:13;;;;;;;12.30;2.67;;;;;;;9.75;56.77;102019.09;4745903;29;20144;-55
2022/02/25 08:33:39;;;;;;;21.33;3.38;;;;;;;9.63;56.53;102023.88;4750809;29;20059;-53
2022/02/25 08:36:05;;;;;;;14.10;2.47;;;;;;;9.73;56.06;102025.06;4744240;29;20035;-53
2022/02/25 08:38:30;;;;;;;18.08;2.72;;;;;;;9.56;56.70;102034.00;4755021;29;20406;-53
2022/02/25 08:40:56;;;;;;;16.63;2.47;;;;;;;9.59;56.59;102042.81;4737188;29;20366;-54
2022/02/25 08:43:21;;;;;;;19.58;2.78;;;;;;;9.58;56.93;102041.03;4740406;29;20069;-52
2022/02/25 08:45:47;;;;;;;14.93;2.47;;;;;;;9.42;57.57;102045.63;4753652;29;20663;-54
2022/02/25 08:48:12;;;;;;;16.27;2.45;;;;;;;9.62;57.20;102061.16;4756065;29;20069;-52
2022/02/25 08:50:39;;;;;;;24.65;3.00;;;;;;;9.68;56.93;102052.69;4758279;29;20082;-50
2022/02/25 08:53:04;;;;;;;18.75;2.78;;;;;;;9.72;56.86;102062.34;4745213;29;20496;-50
2022/02/25 08:55:29;;;;;;;13.80;2.75;;;;;;;9.63;56.76;102068.16;4751306;29;20055;-53
2022/02/25 08:57:55;;;;;;;18.42;2.72;;;;;;;9.87;56.07;102075.06;4753090;29;20351;-51
2022/02/25 09:00:29;;;;;;;14.95;2.50;;;;;;;9.99;55.52;102071.16;4756405;29;20051;-50
2022/02/25 09:02:55;;;;;;;14.82;2.75;;;;;;;10.17;55.56;102081.34;4748519;29;20130;-53
2022/02/25 09:05:22;;;;;;;16.77;2.55;;;;;;;10.16;55.71;102085.69;4748283;29;20167;-51
2022/02/25 09:07:48;;;;;;;18.23;2.60;;;;;;;10.16;55.73;102082.16;4757731;29;20047;-54
2022/02/25 09:10:15;;;;;;;17.50;3.10;;;;;;;10.14;56.12;102094.22;4751799;29;20120;-54
2022/02/25 09:12:42;;;;;;;18.50;2.85;;;;;;;10.29;55.58;102094.81;4758425;29;20192;-55
2022/02/25 09:15:11;;;;;;;19.27;3.28;;;;;;;10.37;55.31;102093.31;4747824;29;20051;-52
2022/02/25 09:17:37;;;;;;;17.67;2.65;;;;;;;10.28;56.10;102102.56;4751466;29;20431;-53
2022/02/25 09:20:03;;;;;;;19.85;2.75;;;;;;;10.23;55.72;102104.13;4754835;29;20573;-54
2022/02/25 09:22:28;;;;;;;17.98;3.08;;;;;;;10.30;55.21;102100.91;4751511;29;20911;-54
2022/02/25 09:24:54;;;;;;;18.02;2.85;;;;;;;10.21;56.29;102111.00;4756234;29;20271;-53
2022/02/25 09:27:19;;;;;;;15.55;3.10;;;;;;;10.21;55.34;102109.28;4749437;29;20059;-54
2022/02/25 09:29:45;;;;;;;17.67;2.40;;;;;;;10.12;56.38;102112.41;4749531;29;20066;-54
2022/02/25 09:32:10;;;;;;;25.85;3.03;;;;;;;10.07;55.83;102111.38;4751217;29;20689;-55
2022/02/25 09:34:36;;;;;;;16.00;2.90;;;;;;;10.04;55.79;102126.03;4758935;29;20526;-53
2022/02/25 09:37:03;;;;;;;19.73;2.63;;;;;;;10.22;55.86;102123.19;4743789;29;20043;-53
2022/02/25 09:39:29;;;;;;;14.20;2.58;;;;;;;10.21;55.95;102135.34;4760225;29;20080;-51
2022/02/25 09:41:56;;;;;;;21.33;2.95;;;;;;;10.14;56.14;102134.22;4749481;29;20047;-54
2022/02/25 09:44:26;;;;;;;19.65;2.80;;;;;;;10.37;55.58;102139.38;4745211;29;20150;-53
2022/02/25 09:46:52;;;;;;;14.35;2.75;;;;;;;10.40;55.79;102145.56;4755048;29;20332;-52
2022/02/25 09:49:18;;;;;;;17.30;2.47;;;;;;;10.61;55.18;102149.75;4752572;29;22471;-53
2022/02/25 09:51:45;;;;;;;18.50;2.50;;;;;;;10.73;54.67;102158.88;4754372;29;20055;-52
2022/02/25 09:54:15;;;;;;;16.13;2.83;;;;;;;10.87;54.98;102154.97;4756776;29;20464;-55
2022/02/25 09:56:41;;;;;;;16.40;2.72;;;;;;;10.90;54.82;102155.09;4752446;29;20538;-53
2022/02/25 09:59:07;;;;;;;17.50;2.50;;;;;;;11.09;54.38;102156.56;4748499;29;20142;-55
2022/02/25 10:01:36;;;;;;;14.48;2.75;;;;;;;11.12;53.81;102167.09;4751562;29;20697;-55
2022/02/25 10:04:19;;;;;;;16.08;3.38;;;;;;;11.14;54.38;102167.13;4749527;29;20055;-54
2022/02/25 10:06:45;;;;;;;15.13;2.67;;;;;;;10.92;54.52;102173.38;4751436;29;20047;-54
2022/02/25 10:09:25;;;;;;;15.27;2.75;;;;;;;10.95;53.78;102178.72;4748241;29;20496;-54
2022/02/25 10:12:01;;;;;;;18.73;2.85;;;;;;;10.93;54.28;102173.44;4751341;29;20086;-53
2022/02/25 10:14:47;;;;;;;22.02;2.95;;;;;;;10.97;54.18;102179.66;4754858;29;20424;-54
2022/02/25 10:17:17;;;;;;;13.23;2.55;;;;;;;11.06;53.77;102185.16;4743598;29;20255;-53
2022/02/25 10:19:44;;;;;;;15.68;2.80;;;;;;;11.23;54.15;102190.91;4748647;29;20059;-52
2022/02/25 10:22:14;;;;;;;16.65;2.50;;;;;;;11.56;53.53;102196.31;4749963;29;20050;-54
2022/02/25 10:24:50;;;;;;;20.77;3.20;;;;;;;11.77;53.28;102199.59;4752909;29;20921;-52
2022/02/25 10:27:21;;;;;;;20.60;2.90;;;;;;;11.96;52.63;102204.50;4730855;29;20047;-50
2022/02/25 10:29:58;;;;;;;11.95;2.33;;;;;;;11.94;53.55;102203.59;4756113;29;20529;-54
2022/02/25 10:32:30;;;;;;;16.17;2.92;;;;;;;12.05;52.08;102204.78;4743057;29;20055;-53
2022/02/25 10:34:55;;;;;;;18.58;2.97;;;;;;;12.07;51.85;102218.78;4750869;29;20496;-53
2022/02/25 10:37:21;;;;;;;16.02;2.63;;;;;;;12.10;51.73;102220.59;4743672;29;20035;-53
2022/02/25 10:39:47;;;;;;;16.75;2.67;;;;;;;11.91;51.43;102227.00;4752030;29;20055;-55
2022/02/25 10:42:19;;;;;;;21.52;2.78;;;;;;;11.95;51.88;102234.13;4758274;29;20349;-54
2022/02/25 10:45:02;;;;;;;19.35;2.72;;;;;;;11.86;53.71;102239.06;4753334;29;20166;-52
2022/02/25 10:47:30;;;;;;;23.13;3.28;;;;;;;11.56;54.13;102244.19;4743022;29;20080;-54
2022/02/25 10:50:03;;;;;;;16.35;3.13;;;;;;;11.77;53.41;102257.09;4747888;29;20413;-56
2022/02/25 10:52:34;;;;;;;17.02;2.80;;;;;;;11.86;53.29;102265.19;4742720;29;20395;-54
2022/02/25 10:55:01;;;;;;;16.88;2.78;;;;;;;12.09;52.49;102265.84;4749892;29;20054;-52
2022/02/25 10:57:28;;;;;;;20.60;3.10;;;;;;;12.12;52.22;102261.63;4753096;29;20047;-53
2022/02/25 10:59:54;;;;;;;18.38;3.10;;;;;;;12.50;51.82;102265.28;4752593;29;20594;-51
2022/02/25 11:02:36;;;;;;;16.77;2.67;;;;;;;12.53;51.70;102281.09;4745724;29;20101;-55
2022/02/25 11:05:12;;;;;;;20.35;3.42;;;;;;;12.80;50.94;102278.34;4747379;29;20087;-55
2022/02/25 11:07:40;;;;;;;14.85;2.65;;;;;;;12.87;50.16;102279.38;4745453;29;20071;-52
2022/02/25 11:10:08;;;;;;;14.15;2.88;;;;;;;12.89;49.96;102277.69;4753993;29;20082;-53
2022/02/25 11:12:39;;;;;;;21.15;2.95;;;;;;;12.99;50.56;102292.81;4739273;29;20365;-52
2022/02/25 11:15:08;;;;;;;20.88;2.80;;;;;;;12.84;49.10;102297.63;4744010;29;20079;-54
2022/02/25 11:17:35;;;;;;;15.48;2.33;;;;;;;12.82;49.75;102310.66;4752207;29;20048;-53
2022/02/25 11:20:02;;;;;;;16.88;2.70;;;;;;;12.95;50.56;102301.41;4743946;29;20548;-53
2022/02/25 11:22:30;;;;;;;18.15;2.90;;;;;;;13.20;49.32;102305.59;4742347;29;20600;-54
2022/02/25 11:24:57;;;;;;;19.75;3.13;;;;;;;13.06;49.60;102306.91;4751353;29;20051;-55
2022/02/25 11:27:23;;;;;;;15.15;2.08;;;;;;;13.12;48.80;102307.06;4749976;29;20063;-51